Time;durP1;ratioP1;P1;durP2;ratioP2;P2;SDS_P1;SDS_P2;PMS_P1;PMS_P2;Temp;Humidity;BMP_temperature;BMP_pressure;BME280_temperature;BME280_humidity;BME280_pressure;Samples;Min_cycle;Max_cycle;Signal;HPM_P1;HPM_P2
2021/10/01 00:00:34;;;;;;;1.80;0.70;;;;;;;;;;10233872;28;20038;-61
2021/10/01 00:05:32;;;;;;;2.57;0.70;;;;;;;;;;10225479;28;20030;-60
2021/10/01 00:10:29;;;;;;;1.37;1.00;;;;;;;;;;10242471;28;20038;-60
2021/10/01 00:15:28;;;;;;;2.90;1.07;;;;;;;;;;10235613;28;20030;-60
2021/10/01 00:20:25;;;;;;;;;;;;;;;;;;10221543;28;20563;-60
2021/10/01 00:25:22;;;;;;;1.75;0.50;;;;;;;;;;10234170;28;20012;-59
2021/10/01 00:30:20;;;;;;;6.10;0.90;;;;;;;;;;10240453;28;20038;-60
2021/10/01 00:35:17;;;;;;;3.27;1.23;;;;;;;;;;10212071;28;20045;-60
2021/10/01 00:40:15;;;;;;;2.33;1.23;;;;;;;;;;10219632;28;21590;-61
2021/10/01 00:45:12;;;;;;;2.63;1.23;;;;;;;;;;10239688;28;20077;-61
2021/10/01 00:50:10;;;;;;;2.60;1.00;;;;;;;;;;10225035;28;20049;-60
2021/10/01 00:55:07;;;;;;;0.37;0.37;;;;;;;;;;10217874;28;20026;-60
2021/10/01 01:00:07;;;;;;;1.77;0.70;;;;;;;;;;10226302;28;20622;-60
2021/10/01 01:05:04;;;;;;;1.95;0.50;;;;;;;;;;10220640;28;20121;-60
2021/10/01 01:10:22;;;;;;;2.87;0.93;;;;;;;;;;10214111;28;20554;-60
2021/10/01 01:15:25;;;;;;;2.15;1.00;;;;;;;;;;10200327;28;20045;-61
2021/10/01 01:20:26;;;;;;;4.28;0.82;;;;;;;;;;10221743;28;20111;-60
2021/10/01 01:25:23;;;;;;;4.40;0.65;;;;;;;;;;10245083;28;20029;-60
2021/10/01 01:30:22;;;;;;;4.33;0.60;;;;;;;;;;10246672;28;20041;-60
2021/10/01 01:35:46;;;;;;;3.60;1.13;;;;;;;;;;10239234;28;20511;-59
2021/10/01 01:40:45;;;;;;;2.00;0.88;;;;;;;;;;10248487;28;20034;-62
2021/10/01 01:45:44;;;;;;;3.50;0.65;;;;;;;;;;10237687;28;20525;-60
2021/10/01 01:50:42;;;;;;;2.42;1.00;;;;;;;;;;10213598;28;20037;-61
2021/10/01 01:55:40;;;;;;;7.90;1.08;;;;;;;;;;10222664;28;20061;-61
2021/10/01 02:00:38;;;;;;;1.00;0.60;;;;;;;;;;10245242;28;20045;-61
2021/10/01 02:05:35;;;;;;;2.63;1.40;;;;;;;;;;10225450;28;20412;-62
2021/10/01 02:10:35;;;;;;;2.70;1.10;;;;;;;;;;10245071;28;20505;-59
2021/10/01 02:15:34;;;;;;;3.50;0.82;;;;;;;;;;10230629;28;20104;-59
2021/10/01 02:20:32;;;;;;;2.15;1.05;;;;;;;;;;10230495;28;20057;-60
2021/10/01 02:30:49;;;;;;;0.98;0.57;;;;;;;;;;10223363;28;20443;-59
2021/10/01 02:35:47;;;;;;;2.70;0.60;;;;;;;;;;10241807;28;20050;-59
2021/10/01 02:40:44;;;;;;;0.83;0.80;;;;;;;;;;10228826;28;20084;-60
2021/10/01 02:45:41;;;;;;;1.80;0.90;;;;;;;;;;10238114;28;20026;-59
2021/10/01 02:50:40;;;;;;;1.53;0.90;;;;;;;;;;10233677;28;20407;-58
2021/10/01 02:55:40;;;;;;;0.68;0.68;;;;;;;;;;10256469;28;20049;-59
2021/10/01 03:00:38;;;;;;;1.60;0.82;;;;;;;;;;10248437;28;20084;-57
2021/10/01 03:05:36;;;;;;;1.08;0.93;;;;;;;;;;10247202;28;20077;-57
2021/10/01 03:10:35;;;;;;;2.92;0.95;;;;;;;;;;10257147;28;20037;-59
2021/10/01 03:15:33;;;;;;;0.82;0.77;;;;;;;;;;10247534;28;20037;-59
2021/10/01 03:20:31;;;;;;;0.70;0.55;;;;;;;;;;10246711;28;20042;-59
2021/10/01 03:25:28;;;;;;;4.17;0.70;;;;;;;;;;10263968;28;20057;-60
2021/10/01 03:30:26;;;;;;;1.83;0.90;;;;;;;;;;10260205;28;20368;-61
2021/10/01 03:35:23;;;;;;;1.20;1.00;;;;;;;;;;10263584;28;20513;-60
2021/10/01 03:40:23;;;;;;;7.60;0.98;;;;;;;;;;10246439;28;20504;-60
2021/10/01 03:45:21;;;;;;;2.72;0.75;;;;;;;;;;10245251;28;20064;-60
2021/10/01 03:50:18;;;;;;;1.10;0.70;;;;;;;;;;10245435;28;20044;-61
2021/10/01 03:55:21;;;;;;;1.77;0.77;;;;;;;;;;10201724;28;20454;-61
2021/10/01 04:00:20;;;;;;;0.68;0.50;;;;;;;;;;10218030;28;20467;-61
2021/10/01 04:05:18;;;;;;;6.18;1.00;;;;;;;;;;10231284;28;20133;-62
2021/10/01 04:10:16;;;;;;;3.60;1.50;;;;;;;;;;10237198;28;20042;-61
2021/10/01 04:15:14;;;;;;;2.37;0.90;;;;;;;;;;10240312;28;20048;-62
2021/10/01 04:20:11;;;;;;;2.70;1.10;;;;;;;;;;10221022;28;20799;-62
2021/10/01 04:25:08;;;;;;;1.73;1.23;;;;;;;;;;10220023;28;20122;-61
2021/10/01 04:30:07;;;;;;;3.72;1.20;;;;;;;;;;10215390;28;20411;-60
2021/10/01 04:35:09;;;;;;;3.50;1.13;;;;;;;;;;10225452;28;20042;-60
2021/10/01 04:40:07;;;;;;;3.38;1.38;;;;;;;;;;10226819;28;20514;-60
2021/10/01 04:45:06;;;;;;;1.73;0.90;;;;;;;;;;10232771;28;20060;-60
2021/10/01 04:50:04;;;;;;;0.60;0.60;;;;;;;;;;10218831;28;20473;-62
2021/10/01 04:55:01;;;;;;;3.10;1.20;;;;;;;;;;10217151;28;20375;-61
2021/10/01 04:59:59;;;;;;;2.90;1.33;;;;;;;;;;10233286;28;20032;-61
2021/10/01 05:05:15;;;;;;;4.03;1.25;;;;;;;;;;10256396;28;20042;-61
2021/10/01 05:10:45;;;;;;;3.85;1.35;;;;;;;;;;10240737;28;20096;-61
2021/10/01 05:16:21;;;;;;;5.30;1.35;;;;;;;;;;10247042;28;20046;-60
2021/10/01 05:21:47;;;;;;;2.33;1.10;;;;;;;;;;10222384;28;20042;-61
2021/10/01 05:26:46;;;;;;;1.83;1.25;;;;;;;;;;10228252;28;20034;-61
2021/10/01 05:31:43;;;;;;;3.33;1.03;;;;;;;;;;10236928;28;20405;-61
2021/10/01 05:36:41;;;;;;;10.17;1.30;;;;;;;;;;10226864;28;20492;-61
2021/10/01 05:41:38;;;;;;;6.33;1.27;;;;;;;;;;10230811;28;20033;-60
2021/10/01 05:46:40;;;;;;;3.33;0.90;;;;;;;;;;10240036;28;20026;-61
2021/10/01 05:52:11;;;;;;;2.58;1.00;;;;;;;;;;10239326;28;20038;-59
2021/10/01 05:57:35;;;;;;;4.38;1.33;;;;;;;;;;10246377;28;20048;-60
2021/10/01 06:02:45;;;;;;;5.55;0.70;;;;;;;;;;10218044;28;20524;-61
2021/10/01 06:07:43;;;;;;;2.17;0.93;;;;;;;;;;10251391;28;20038;-59
2021/10/01 06:12:42;;;;;;;3.23;1.03;;;;;;;;;;10247302;28;20034;-60
2021/10/01 06:17:40;;;;;;;2.15;0.70;;;;;;;;;;10237408;28;20041;-60
2021/10/01 06:22:38;;;;;;;2.72;0.80;;;;;;;;;;10252208;28;20506;-59
2021/10/01 06:27:35;;;;;;;1.88;0.88;;;;;;;;;;10244564;28;20125;-62
2021/10/01 06:32:35;;;;;;;2.07;1.17;;;;;;;;;;10239316;28;20137;-61
2021/10/01 06:37:32;;;;;;;1.25;0.32;;;;;;;;;;10243337;28;20117;-61
2021/10/01 06:42:31;;;;;;;0.57;0.40;;;;;;;;;;10247368;28;20125;-61
2021/10/01 06:47:37;;;;;;;1.42;0.68;;;;;;;;;;10251594;28;20388;-60
2021/10/01 07:29:24;;;;;;;1.67;0.95;;;;;;;;;;10232848;28;20038;-60
2021/10/01 08:21:16;;;;;;;1.63;0.45;;;;;;;;;;10229929;28;20069;-60
2021/10/01 08:26:13;;;;;;;2.73;0.70;;;;;;;;;;10240429;28;20058;-61
2021/10/01 08:31:11;;;;;;;3.30;0.97;;;;;;;;;;10232264;28;20103;-59
2021/10/01 08:36:08;;;;;;;0.43;0.40;;;;;;;;;;10236801;28;20520;-60
2021/10/01 08:41:09;;;;;;;1.45;0.40;;;;;;;;;;10246253;28;20038;-61
2021/10/01 08:46:07;;;;;;;1.05;0.50;;;;;;;;;;10260132;28;20095;-60
2021/10/01 08:51:06;;;;;;;2.03;0.40;;;;;;;;;;10238122;28;20495;-61
2021/10/01 08:56:04;;;;;;;2.75;1.00;;;;;;;;;;10262327;28;20136;-60
2021/10/01 09:01:03;;;;;;;1.20;0.63;;;;;;;;;;10251088;28;20555;-61
2021/10/01 09:06:00;;;;;;;3.10;1.20;;;;;;;;;;10249426;28;20507;-61
2021/10/01 09:11:02;;;;;;;4.80;0.90;;;;;;;;;;10253573;28;20407;-61
2021/10/01 09:16:05;;;;;;;2.20;0.68;;;;;;;;;;10227992;28;20041;-59
2021/10/01 09:21:09;;;;;;;0.50;0.45;;;;;;;;;;10249121;28;20052;-61
2021/10/01 09:26:13;;;;;;;1.50;0.50;;;;;;;;;;10243184;28;20046;-61
2021/10/01 09:31:28;;;;;;;1.30;0.70;;;;;;;;;;10238368;28;20022;-60
2021/10/01 09:36:26;;;;;;;1.35;0.60;;;;;;;;;;10259572;28;20041;-61
2021/10/01 09:41:25;;;;;;;2.40;0.40;;;;;;;;;;10251006;28;20157;-60
2021/10/01 09:46:23;;;;;;;1.55;0.70;;;;;;;;;;10231429;28;20084;-61
2021/10/01 09:51:21;;;;;;;6.97;0.60;;;;;;;;;;10251087;28;20514;-59
2021/10/01 09:56:22;;;;;;;8.90;2.97;;;;;;;;;;10228777;28;20038;-61
2021/10/01 10:01:20;;;;;;;31.20;8.93;;;;;;;;;;10246225;28;20459;-62
2021/10/01 10:06:17;;;;;;;11.53;5.03;;;;;;;;;;10223945;28;20133;-59
2021/10/01 10:11:15;;;;;;;8.63;3.13;;;;;;;;;;10236579;28;20487;-58
2021/10/01 10:16:12;;;;;;;;;;;;;;;;;;10241698;28;20054;-61
2021/10/01 10:21:10;;;;;;;4.65;1.17;;;;;;;;;;10237427;28;19963;-60
2021/10/01 10:26:08;;;;;;;6.03;1.35;;;;;;;;;;10237330;28;20042;-60
2021/10/01 10:31:05;;;;;;;3.05;1.08;;;;;;;;;;10246956;28;20053;-60
2021/10/01 10:36:22;;;;;;;2.73;0.70;;;;;;;;;;10239275;28;20070;-59
2021/10/01 10:41:24;;;;;;;0.82;0.60;;;;;;;;;;10234481;28;20052;-61
2021/10/01 10:46:36;;;;;;;0.47;0.40;;;;;;;;;;10229253;28;20042;-62
2021/10/01 10:51:57;;;;;;;0.93;0.50;;;;;;;;;;10236847;28;20041;-60
2021/10/01 10:57:13;;;;;;;1.95;0.73;;;;;;;;;;10215477;28;20068;-61
2021/10/01 11:02:41;;;;;;;7.18;0.77;;;;;;;;;;10234124;28;20568;-60
2021/10/01 11:07:49;;;;;;;1.08;0.52;;;;;;;;;;10220167;28;20037;-60
2021/10/01 11:12:47;;;;;;;3.27;0.60;;;;;;;;;;10229198;28;20508;-59
2021/10/01 11:17:45;;;;;;;;;;;;;;;;;;10204757;28;20065;-62
2021/10/01 11:22:42;;;;;;;3.00;0.88;;;;;;;;;;10236577;28;20012;-58
2021/10/01 11:27:50;;;;;;;4.60;0.67;;;;;;;;;;10230353;28;20395;-60
2021/10/01 11:32:47;;;;;;;2.60;0.27;;;;;;;;;;10239565;28;20486;-61
2021/10/01 11:37:48;;;;;;;0.80;0.37;;;;;;;;;;10217868;28;20038;-60
2021/10/01 11:42:46;;;;;;;0.30;0.30;;;;;;;;;;10227437;28;20030;-61
2021/10/01 11:47:43;;;;;;;;;;;;;;;;;;10227621;28;20524;-61
2021/10/01 11:52:43;;;;;;;1.60;0.40;;;;;;;;;;10234103;28;19920;-60
2021/10/01 11:57:41;;;;;;;1.17;0.30;;;;;;;;;;10241104;28;20034;-60
2021/10/01 12:02:40;;;;;;;0.52;0.35;;;;;;;;;;10211947;28;20038;-60
2021/10/01 12:08:10;;;;;;;1.52;0.20;;;;;;;;;;10242939;28;20026;-60
2021/10/01 12:13:07;;;;;;;0.40;0.32;;;;;;;;;;10203370;28;20029;-62
2021/10/01 12:18:05;;;;;;;4.50;0.37;;;;;;;;;;10240979;28;20026;-61
2021/10/01 12:23:16;;;;;;;0.80;0.22;;;;;;;;;;10241030;28;20034;-61
2021/10/01 12:28:13;;;;;;;0.70;0.20;;;;;;;;;;10241277;28;20034;-61
2021/10/01 12:33:11;;;;;;;1.53;0.40;;;;;;;;;;10223017;28;20034;-61
2021/10/01 12:38:08;;;;;;;1.30;0.32;;;;;;;;;;10251188;28;20072;-60
2021/10/01 12:43:06;;;;;;;1.03;0.50;;;;;;;;;;10241563;28;20049;-60
2021/10/01 12:48:05;;;;;;;1.03;0.40;;;;;;;;;;10237216;28;20562;-61
2021/10/01 12:53:04;;;;;;;0.20;0.20;;;;;;;;;;10237538;28;20038;-60
2021/10/01 12:58:01;;;;;;;;;;;;;;;;;;10234505;28;20029;-58
2021/10/01 13:03:00;;;;;;;0.45;0.30;;;;;;;;;;10236463;28;19922;-59
2021/10/01 13:07:57;;;;;;;1.20;0.38;;;;;;;;;;10230502;28;20046;-60
2021/10/01 13:12:55;;;;;;;0.20;0.20;;;;;;;;;;10225981;28;20034;-61
2021/10/01 13:18:19;;;;;;;2.67;0.50;;;;;;;;;;10240694;28;20527;-61
2021/10/01 13:23:28;;;;;;;1.17;0.30;;;;;;;;;;10234577;28;20221;-61
2021/10/01 13:28:26;;;;;;;0.35;0.35;;;;;;;;;;10246608;28;20494;-58
2021/10/01 13:33:24;;;;;;;0.68;0.30;;;;;;;;;;10246293;28;20038;-62
2021/10/01 13:38:27;;;;;;;1.88;0.47;;;;;;;;;;10236297;28;20038;-60
2021/10/01 13:43:25;;;;;;;0.57;0.28;;;;;;;;;;10241347;28;20042;-60
2021/10/01 13:48:23;;;;;;;0.10;0.10;;;;;;;;;;10233752;28;20619;-60
2021/10/01 13:53:21;;;;;;;0.20;0.20;;;;;;;;;;10239909;28;20035;-59
2021/10/01 13:58:18;;;;;;;0.30;0.30;;;;;;;;;;10244372;28;20034;-60
2021/10/01 14:03:17;;;;;;;0.37;0.37;;;;;;;;;;10227132;28;20199;-59
2021/10/01 14:08:15;;;;;;;3.03;0.70;;;;;;;;;;10202666;28;20030;-60
2021/10/01 14:13:13;;;;;;;0.73;0.30;;;;;;;;;;10232081;28;20061;-61
2021/10/01 14:18:10;;;;;;;0.33;0.33;;;;;;;;;;10248204;28;20040;-61
2021/10/01 14:23:08;;;;;;;4.90;0.40;;;;;;;;;;10238164;28;20088;-62
2021/10/01 14:28:06;;;;;;;0.90;0.40;;;;;;;;;;10240231;28;20108;-62
2021/10/01 14:33:05;;;;;;;1.48;0.52;;;;;;;;;;10233881;28;20045;-61
2021/10/01 14:38:07;;;;;;;3.10;0.60;;;;;;;;;;10252491;28;20030;-62
2021/10/01 14:43:04;;;;;;;1.65;0.47;;;;;;;;;;10220107;28;20045;-60
2021/10/01 14:48:02;;;;;;;1.13;0.43;;;;;;;;;;10234597;28;20422;-61
2021/10/01 14:52:59;;;;;;;1.20;0.43;;;;;;;;;;10236516;28;20057;-62
2021/10/01 14:57:57;;;;;;;0.10;0.10;;;;;;;;;;10240758;28;20568;-62
2021/10/01 15:02:56;;;;;;;1.40;0.47;;;;;;;;;;10228485;28;20065;-63
2021/10/01 15:07:53;;;;;;;0.32;0.20;;;;;;;;;;10219459;28;20046;-63
2021/10/01 15:12:51;;;;;;;0.40;0.30;;;;;;;;;;10247729;28;20392;-62
2021/10/01 15:17:48;;;;;;;0.10;0.10;;;;;;;;;;10247068;28;20033;-63
2021/10/01 15:22:46;;;;;;;3.23;1.33;;;;;;;;;;10244068;28;20037;-64
2021/10/01 15:27:43;;;;;;;0.43;0.40;;;;;;;;;;10249966;28;20084;-62
2021/10/01 15:32:44;;;;;;;0.60;0.27;;;;;;;;;;10242521;28;20084;-61
2021/10/01 15:37:41;;;;;;;1.35;0.22;;;;;;;;;;10236803;28;20041;-60
2021/10/01 15:42:39;;;;;;;1.00;0.30;;;;;;;;;;10220534;28;20046;-60
2021/10/01 15:47:37;;;;;;;0.70;0.40;;;;;;;;;;10218617;28;20053;-58
2021/10/01 15:52:36;;;;;;;1.45;0.35;;;;;;;;;;10230934;28;20026;-60
2021/10/01 15:57:33;;;;;;;0.60;0.47;;;;;;;;;;10235983;28;20408;-60
2021/10/01 16:02:31;;;;;;;0.40;0.37;;;;;;;;;;10239257;28;20052;-61
2021/10/01 16:07:28;;;;;;;0.90;0.30;;;;;;;;;;10239183;28;20500;-62
2021/10/01 16:12:26;;;;;;;0.53;0.53;;;;;;;;;;10246013;28;20061;-62
2021/10/01 16:17:23;;;;;;;2.33;0.60;;;;;;;;;;10228118;28;20045;-63
2021/10/01 16:22:20;;;;;;;0.67;0.50;;;;;;;;;;10244649;28;20392;-61
2021/10/01 16:27:19;;;;;;;0.80;0.53;;;;;;;;;;10246318;28;20125;-63
2021/10/01 16:32:16;;;;;;;1.27;0.20;;;;;;;;;;10240798;28;20490;-61
2021/10/01 16:37:14;;;;;;;0.57;0.30;;;;;;;;;;10224461;28;20149;-62
2021/10/01 16:42:11;;;;;;;0.40;0.40;;;;;;;;;;10226748;28;20034;-60
2021/10/01 16:47:12;;;;;;;1.03;0.43;;;;;;;;;;10235333;28;20036;-61
2021/10/01 16:52:09;;;;;;;2.92;0.55;;;;;;;;;;10240755;28;20129;-60
2021/10/01 16:57:06;;;;;;;3.30;0.57;;;;;;;;;;10244480;28;20137;-58
2021/10/01 17:02:04;;;;;;;0.50;0.37;;;;;;;;;;10249646;28;20034;-60
2021/10/01 17:07:01;;;;;;;1.20;0.50;;;;;;;;;;10236993;28;20406;-60
2021/10/01 17:11:59;;;;;;;1.00;0.53;;;;;;;;;;10241247;28;20389;-59
2021/10/01 17:16:56;;;;;;;2.40;0.40;;;;;;;;;;10223976;28;20543;-58
2021/10/01 17:21:56;;;;;;;1.97;0.70;;;;;;;;;;10247144;28;20081;-60
2021/10/01 17:26:53;;;;;;;2.85;0.77;;;;;;;;;;10238990;28;20030;-60
2021/10/01 17:31:51;;;;;;;4.27;0.80;;;;;;;;;;10252371;28;20057;-59
2021/10/01 17:36:48;;;;;;;3.13;0.73;;;;;;;;;;10233325;28;20503;-59
2021/10/01 17:41:45;;;;;;;1.90;0.70;;;;;;;;;;10245961;28;20038;-59
2021/10/01 17:46:43;;;;;;;2.43;0.60;;;;;;;;;;10238168;28;20496;-60
2021/10/01 17:51:40;;;;;;;1.73;0.77;;;;;;;;;;10236510;28;20045;-58
2021/10/01 17:56:38;;;;;;;0.60;0.47;;;;;;;;;;10239505;28;20329;-59
2021/10/01 18:01:35;;;;;;;1.97;0.50;;;;;;;;;;10246669;28;20034;-58
2021/10/01 18:06:33;;;;;;;1.00;0.77;;;;;;;;;;10243213;28;20495;-60
2021/10/01 18:11:30;;;;;;;0.90;0.50;;;;;;;;;;10249995;28;20037;-61
2021/10/01 18:16:28;;;;;;;4.60;0.63;;;;;;;;;;10243106;28;20053;-61
2021/10/01 18:21:25;;;;;;;1.17;0.87;;;;;;;;;;10232930;28;20042;-60
2021/10/01 18:26:22;;;;;;;1.53;1.07;;;;;;;;;;10241720;28;20104;-60
2021/10/01 18:31:20;;;;;;;1.00;1.00;;;;;;;;;;10223187;28;20714;-60
2021/10/01 18:36:19;;;;;;;5.70;0.63;;;;;;;;;;10243858;28;20038;-59
2021/10/01 18:41:18;;;;;;;4.40;0.50;;;;;;;;;;10240505;28;20477;-60
2021/10/01 18:46:15;;;;;;;1.95;0.60;;;;;;;;;;10240854;28;20041;-59
2021/10/01 18:51:13;;;;;;;1.30;0.70;;;;;;;;;;10239057;28;20093;-60
2021/10/01 18:56:13;;;;;;;2.13;0.67;;;;;;;;;;10240610;28;20500;-60
2021/10/01 19:01:10;;;;;;;1.02;0.43;;;;;;;;;;10239433;28;20096;-60
2021/10/01 19:06:08;;;;;;;1.80;0.50;;;;;;;;;;10253117;28;20523;-60
2021/10/01 19:11:06;;;;;;;0.63;0.63;;;;;;;;;;10242946;28;20041;-61
2021/10/01 19:16:05;;;;;;;0.40;0.40;;;;;;;;;;10236160;28;20698;-61
2021/10/01 19:21:07;;;;;;;0.65;0.40;;;;;;;;;;10238710;28;20369;-60
2021/10/01 19:31:06;;;;;;;0.35;0.30;;;;;;;;;;10234936;28;20040;-60
2021/10/01 19:36:04;;;;;;;0.85;0.68;;;;;;;;;;10239898;28;20042;-60
2021/10/01 19:41:02;;;;;;;6.40;0.50;;;;;;;;;;10230092;28;20045;-61
2021/10/01 19:45:59;;;;;;;0.40;0.30;;;;;;;;;;10240497;28;20095;-59
2021/10/01 19:50:57;;;;;;;1.23;0.30;;;;;;;;;;10240393;28;20430;-59
2021/10/01 19:55:55;;;;;;;0.65;0.35;;;;;;;;;;10241684;28;20565;-61
2021/10/01 20:01:05;;;;;;;;;;;;;;;;;;10228218;28;20064;-60
2021/10/01 20:06:02;;;;;;;1.08;0.60;;;;;;;;;;10233683;28;19914;-61
2021/10/01 20:11:00;;;;;;;0.67;0.50;;;;;;;;;;10235043;28;20038;-61
2021/10/01 20:15:57;;;;;;;5.83;0.47;;;;;;;;;;10245396;28;20566;-61
2021/10/01 20:21:38;;;;;;;0.97;0.87;;;;;;;;;;10247181;28;20038;-61
2021/10/01 20:47:21;;;;;;;0.50;0.32;;;;;;;;;;10236566;28;20494;-60
2021/10/01 20:52:19;;;;;;;0.40;0.22;;;;;;;;;;10245726;28;20085;-61
2021/10/01 21:02:21;;;;;;;5.13;0.70;;;;;;;;;;10231498;28;20042;-60
2021/10/01 21:49:08;;;;;;;1.87;1.00;;;;;;;;;;10247705;28;20128;-61
2021/10/01 21:54:05;;;;;;;2.30;0.60;;;;;;;;;;10238184;28;20041;-61
2021/10/01 21:59:04;;;;;;;1.37;0.73;;;;;;;;;;10247962;28;20033;-59
2021/10/01 22:09:18;;;;;;;2.28;0.98;;;;;;;;;;10240573;28;20091;-61
2021/10/01 22:24:30;;;;;;;0.65;0.57;;;;;;;;;;10241445;28;20517;-60
2021/10/01 22:29:31;;;;;;;2.55;1.15;;;;;;;;;;10240881;28;20041;-60
2021/10/01 22:34:31;;;;;;;2.50;1.17;;;;;;;;;;10239448;28;20041;-58
2021/10/01 22:39:33;;;;;;;2.65;1.48;;;;;;;;;;10239938;28;20128;-59
2021/10/01 22:44:30;;;;;;;3.67;1.30;;;;;;;;;;10240101;28;20037;-58
2021/10/01 22:49:30;;;;;;;1.20;0.40;;;;;;;;;;10244914;28;20040;-59
2021/10/01 22:54:27;;;;;;;3.45;1.98;;;;;;;;;;10226600;28;20034;-59
2021/10/01 22:59:25;;;;;;;0.80;0.73;;;;;;;;;;10244949;28;20064;-59
2021/10/01 23:04:22;;;;;;;1.10;1.00;;;;;;;;;;10251134;28;20412;-59
2021/10/01 23:09:21;;;;;;;5.33;1.50;;;;;;;;;;10234071;28;20391;-57
